Time;durP1;ratioP1;P1;durP2;ratioP2;P2;SDS_P1;SDS_P2;PMS_P1;PMS_P2;Temp;Humidity;BMP_temperature;BMP_pressure;BME280_temperature;BME280_humidity;BME280_pressure;Samples;Min_cycle;Max_cycle;Signal;HPM_P1;HPM_P2
2024/04/24 00:02:19;;;;;;;;;;;;;;;;;;5474740;26;19935;-60
2024/04/24 00:04:45;;;;;;;;;;;;;;;;;;5472288;26;19933;-60
2024/04/24 00:07:11;;;;;;;;;;;;;;;;;;5482840;26;19935;-61
2024/04/24 00:09:36;;;;;;;;;;;;;;;;;;5481201;26;19939;-60
2024/04/24 00:12:02;;;;;;;;;;;;;;;;;;5472797;26;19960;-61
2024/04/24 00:14:28;;;;;;;;;;;;;;;;;;5466436;26;19929;-60
2024/04/24 00:16:54;;;;;;;;;;;;;;;;;;5480741;26;19966;-61
2024/04/24 00:19:20;;;;;;;;;;;;;;;;;;5477473;26;19935;-61
2024/04/24 00:21:46;;;;;;;;;;;;;;;;;;5476746;26;20025;-62
2024/04/24 00:24:14;;;;;;;;;;;;;;;;;;5465613;26;20047;-62
2024/04/24 00:26:40;;;;;;;;;;;;;;;;;;5478010;26;19928;-61
2024/04/24 00:29:06;;;;;;;;;;;;;;;;;;5485850;26;19927;-61
2024/04/24 00:31:31;;;;;;;;;;;;;;;;;;5484345;26;19932;-62
2024/04/24 00:33:57;;;;;;;;;;;;;;;;;;5476009;26;19928;-61
2024/04/24 00:36:26;;;;;;;;;;;;;;;;;;5480909;26;20267;-61
2024/04/24 00:38:52;;;;;;;;;;;;;;;;;;5480019;26;19947;-61
2024/04/24 00:41:18;;;;;;;;;;;;;;;;;;5477673;26;20329;-62
2024/04/24 00:43:44;;;;;;;;;;;;;;;;;;5475989;26;19928;-62
2024/04/24 00:46:10;;;;;;;;;;;;;;;;;;5483879;26;20381;-62
2024/04/24 00:48:36;;;;;;;;;;;;;;;;;;5480804;26;19928;-61
2024/04/24 00:51:02;;;;;;;;;;;;;;;;;;5485381;26;20012;-62
2024/04/24 00:53:28;;;;;;;;;;;;;;;;;;5480422;26;19928;-61
2024/04/24 00:55:53;;;;;;;;;;;;;;;;;;5474331;26;20132;-61
2024/04/24 00:58:19;;;;;;;;;;;;;;;;;;5485795;26;19939;-61
2024/04/24 01:00:45;;;;;;;;;;;;;;;;;;5483727;26;19944;-62
2024/04/24 01:03:11;;;;;;;;;;;;;;;;;;5477041;26;20346;-62
2024/04/24 01:05:37;;;;;;;;;;;;;;;;;;5475299;26;19934;-62
2024/04/24 01:08:03;;;;;;;;;;;;;;;;;;5483713;26;20392;-62
2024/04/24 01:10:29;;;;;;;;;;;;;;;;;;5481387;26;19939;-61
2024/04/24 01:12:55;;;;;;;;;;;;;;;;;;5467516;26;20287;-61
2024/04/24 01:15:21;;;;;;;;;;;;;;;;;;5475889;26;19928;-61
2024/04/24 01:17:47;;;;;;;;;;;;;;;;;;5484139;26;19936;-60
2024/04/24 01:20:12;;;;;;;;;;;;;;;;;;5484422;26;20532;-60
2024/04/24 01:22:38;;;;;;;;;;;;;;;;;;5483091;26;19935;-63
2024/04/24 01:25:04;;;;;;;;;;;;;;;;;;5477584;26;20278;-63
2024/04/24 01:27:30;;;;;;;;;;;;;;;;;;5485895;26;19928;-63
2024/04/24 01:29:56;;;;;;;;;;;;;;;;;;5480305;26;19928;-63
2024/04/24 01:32:22;;;;;;;;;;;;;;;;;;5471813;26;20266;-63
2024/04/24 01:34:48;;;;;;;;;;;;;;;;;;5478531;26;19936;-63
2024/04/24 01:37:13;;;;;;;;;;;;;;;;;;5482776;26;20341;-62
2024/04/24 01:39:39;;;;;;;;;;;;;;;;;;5481684;26;19940;-63
2024/04/24 01:42:05;;;;;;;;;;;;;;;;;;5484929;26;19928;-62
2024/04/24 01:44:31;;;;;;;;;;;;;;;;;;5483814;26;19928;-63
2024/04/24 01:46:57;;;;;;;;;;;;;;;;;;5480925;26;19940;-62
2024/04/24 01:49:23;;;;;;;;;;;;;;;;;;5485751;26;19928;-63
2024/04/24 01:51:48;;;;;;;;;;;;;;;;;;5460920;26;19928;-62
2024/04/24 01:54:14;;;;;;;;;;;;;;;;;;5484337;26;19927;-62
2024/04/24 01:56:40;;;;;;;;;;;;;;;;;;5480734;26;19935;-62
2024/04/24 01:59:06;;;;;;;;;;;;;;;;;;5475551;26;19935;-62
2024/04/24 02:01:32;;;;;;;;;;;;;;;;;;5482343;26;20396;-62
2024/04/24 02:03:58;;;;;;;;;;;;;;;;;;5477938;26;19992;-62
2024/04/24 02:06:24;;;;;;;;;;;;;;;;;;5476466;26;20449;-62
2024/04/24 02:08:50;;;;;;;;;;;;;;;;;;5475843;26;19928;-62
2024/04/24 02:11:16;;;;;;;;;;;;;;;;;;5471452;26;20030;-62
2024/04/24 02:13:42;;;;;;;;;;;;;;;;;;5479357;26;19935;-61
2024/04/24 02:16:07;;;;;;;;;;;;;;;;;;5466721;26;19975;-61
2024/04/24 02:18:33;;;;;;;;;;;;;;;;;;5470515;26;19932;-62
2024/04/24 02:20:59;;;;;;;;;;;;;;;;;;5449963;26;20351;-61
2024/04/24 02:23:31;;;;;;;;;;;;;;;;;;5474980;26;19936;-60
2024/04/24 02:25:57;;;;;;;;;;;;;;;;;;5467861;26;19935;-62
2024/04/24 02:28:23;;;;;;;;;;;;;;;;;;5465695;26;20343;-62
2024/04/24 02:30:48;;;;;;;;;;;;;;;;;;5469649;26;19928;-62
2024/04/24 02:33:14;;;;;;;;;;;;;;;;;;5479000;26;20041;-63
2024/04/24 02:35:40;;;;;;;;;;;;;;;;;;5469552;26;19988;-60
2024/04/24 02:38:06;;;;;;;;;;;;;;;;;;5473299;26;19956;-62
2024/04/24 02:40:32;;;;;;;;;;;;;;;;;;5482581;26;19936;-61
2024/04/24 02:42:58;;;;;;;;;;;;;;;;;;5458282;26;20278;-61
2024/04/24 02:45:24;;;;;;;;;;;;;;;;;;5471616;26;20004;-61
2024/04/24 02:47:50;;;;;;;;;;;;;;;;;;5476742;26;19928;-60
2024/04/24 02:50:16;;;;;;;;;;;;;;;;;;5469103;26;19935;-63
2024/04/24 02:52:41;;;;;;;;;;;;;;;;;;5459713;26;19939;-63
2024/04/24 02:55:07;;;;;;;;;;;;;;;;;;5466962;26;19936;-62
2024/04/24 02:57:34;;;;;;;;;;;;;;;;;;5479539;26;19935;-62
2024/04/24 03:00:00;;;;;;;;;;;;;;;;;;5458452;26;20351;-63
2024/04/24 03:02:26;;;;;;;;;;;;;;;;;;5467712;26;20009;-63
2024/04/24 03:04:51;;;;;;;;;;;;;;;;;;5475043;26;20018;-63
2024/04/24 03:07:17;;;;;;;;;;;;;;;;;;5471256;26;20035;-61
2024/04/24 03:09:43;;;;;;;;;;;;;;;;;;5473638;26;19952;-61
2024/04/24 03:12:09;;;;;;;;;;;;;;;;;;5466466;26;19952;-62
2024/04/24 03:14:35;;;;;;;;;;;;;;;;;;5475125;26;19935;-59
2024/04/24 03:17:01;;;;;;;;;;;;;;;;;;5479994;26;19993;-61
2024/04/24 03:19:27;;;;;;;;;;;;;;;;;;5464515;26;19928;-61
2024/04/24 03:21:53;;;;;;;;;;;;;;;;;;5469116;26;19935;-61
2024/04/24 03:24:19;;;;;;;;;;;;;;;;;;5475272;26;19938;-62
2024/04/24 03:26:45;;;;;;;;;;;;;;;;;;5470710;26;19928;-59
2024/04/24 03:29:11;;;;;;;;;;;;;;;;;;5472716;26;20051;-60
2024/04/24 03:31:36;;;;;;;;;;;;;;;;;;5471513;26;19936;-59
2024/04/24 03:34:02;;;;;;;;;;;;;;;;;;5480247;26;19935;-60
2024/04/24 03:36:28;;;;;;;;;;;;;;;;;;5473535;26;20438;-63
2024/04/24 03:38:54;;;;;;;;;;;;;;;;;;5478561;26;20063;-61
2024/04/24 03:41:20;;;;;;;;;;;;;;;;;;5470680;26;19967;-63
2024/04/24 03:43:46;;;;;;;;;;;;;;;;;;5474491;26;19948;-63
2024/04/24 03:46:12;;;;;;;;;;;;;;;;;;5477797;26;19936;-62
2024/04/24 03:48:37;;;;;;;;;;;;;;;;;;5473544;26;19939;-61
2024/04/24 03:51:03;;;;;;;;;;;;;;;;;;5465230;26;20278;-62
2024/04/24 03:53:29;;;;;;;;;;;;;;;;;;5470803;26;19927;-62
2024/04/24 03:55:55;;;;;;;;;;;;;;;;;;5465426;26;19943;-61
2024/04/24 03:58:21;;;;;;;;;;;;;;;;;;5470257;26;20343;-61
2024/04/24 04:00:47;;;;;;;;;;;;;;;;;;5475141;26;19935;-61
2024/04/24 04:03:13;;;;;;;;;;;;;;;;;;5473754;26;19997;-62
2024/04/24 04:05:38;;;;;;;;;;;;;;;;;;5479289;26;20040;-61
2024/04/24 04:08:04;;;;;;;;;;;;;;;;;;5471151;26;19928;-62
2024/04/24 04:10:30;;;;;;;;;;;;;;;;;;5461779;26;20298;-61
2024/04/24 04:12:56;;;;;;;;;;;;;;;;;;5475215;26;19928;-59
2024/04/24 04:15:22;;;;;;;;;;;;;;;;;;5471167;26;19976;-61
2024/04/24 04:17:48;;;;;;;;;;;;;;;;;;5470322;26;19942;-62
2024/04/24 04:20:14;;;;;;;;;;;;;;;;;;5468775;26;19929;-61
2024/04/24 04:22:39;;;;;;;;;;;;;;;;;;5477806;26;19943;-62
2024/04/24 04:25:05;;;;;;;;;;;;;;;;;;5474568;26;19935;-61
2024/04/24 04:27:31;;;;;;;;;;;;;;;;;;5479110;26;20357;-61
2024/04/24 04:29:57;;;;;;;;;;;;;;;;;;5475147;26;20000;-61
2024/04/24 04:32:23;;;;;;;;;;;;;;;;;;5475556;26;19932;-61
2024/04/24 04:34:49;;;;;;;;;;;;;;;;;;5466327;26;19935;-63
2024/04/24 04:37:15;;;;;;;;;;;;;;;;;;5475711;26;20270;-62
2024/04/24 04:39:41;;;;;;;;;;;;;;;;;;5474855;26;19928;-63
2024/04/24 04:42:06;;;;;;;;;;;;;;;;;;5470111;26;19940;-63
2024/04/24 04:44:32;;;;;;;;;;;;;;;;;;5472804;26;20281;-62
2024/04/24 04:46:58;;;;;;;;;;;;;;;;;;5467906;26;19939;-62
2024/04/24 04:49:24;;;;;;;;;;;;;;;;;;5474001;26;19928;-62
2024/04/24 04:51:50;;;;;;;;;;;;;;;;;;5470480;26;20481;-62
2024/04/24 04:54:16;;;;;;;;;;;;;;;;;;5471423;26;19928;-62
2024/04/24 04:56:42;;;;;;;;;;;;;;;;;;5471594;26;19934;-61
2024/04/24 04:59:07;;;;;;;;;;;;;;;;;;5468876;26;20293;-62
2024/04/24 05:01:33;;;;;;;;;;;;;;;;;;5469746;26;19928;-62
2024/04/24 05:03:59;;;;;;;;;;;;;;;;;;5475323;26;19984;-62
2024/04/24 05:06:25;;;;;;;;;;;;;;;;;;5474291;26;20274;-62
2024/04/24 05:08:51;;;;;;;;;;;;;;;;;;5475991;26;19936;-62
2024/04/24 05:11:17;;;;;;;;;;;;;;;;;;5471791;26;20620;-62
2024/04/24 05:13:43;;;;;;;;;;;;;;;;;;5475267;26;20014;-61
2024/04/24 05:16:08;;;;;;;;;;;;;;;;;;5466485;26;19928;-63
2024/04/24 05:18:34;;;;;;;;;;;;;;;;;;5480751;26;19928;-62
2024/04/24 05:21:01;;;;;;;;;;;;;;;;;;5465326;26;19934;-62
2024/04/24 05:23:27;;;;;;;;;;;;;;;;;;5471675;26;19963;-62
2024/04/24 05:25:55;;;;;;;;;;;;;;;;;;5480483;26;19939;-62
2024/04/24 05:31:05;;;;;;;;;;;;;;;;;;5472639;26;19996;-62
2024/04/24 05:33:31;;;;;;;;;;;;;;;;;;5467754;26;19936;-62
2024/04/24 05:35:57;;;;;;;;;;;;;;;;;;5479357;26;19928;-62
2024/04/24 05:38:23;;;;;;;;;;;;;;;;;;5476915;26;19941;-62
2024/04/24 05:40:49;;;;;;;;;;;;;;;;;;5475552;26;19928;-61
2024/04/24 05:43:15;;;;;;;;;;;;;;;;;;5477425;26;19935;-63
2024/04/24 05:45:40;;;;;;;;;;;;;;;;;;5478820;26;19943;-63
2024/04/24 05:48:06;;;;;;;;;;;;;;;;;;5469273;26;20009;-63
2024/04/24 05:50:32;;;;;;;;;;;;;;;;;;5476440;26;19936;-63
2024/04/24 05:52:58;;;;;;;;;;;;;;;;;;5424113;26;1612104;-62
2024/04/24 05:55:25;;;;;;;;;;;;;;;;;;5486782;26;19935;-62
2024/04/24 05:57:51;;;;;;;;;;;;;;;;;;5474580;26;20385;-62
2024/04/24 06:00:17;;;;;;;;;;;;;;;;;;5486171;26;19928;-62
2024/04/24 06:02:43;;;;;;;;;;;;;;;;;;5486923;26;20259;-61
2024/04/24 06:05:09;;;;;;;;;;;;;;;;;;5479581;26;19935;-62
2024/04/24 06:07:34;;;;;;;;;;;;;;;;;;5474905;26;19997;-62
2024/04/24 06:10:00;;;;;;;;;;;;;;;;;;5485858;26;19934;-62
2024/04/24 06:12:26;;;;;;;;;;;;;;;;;;5475751;26;19935;-62
2024/04/24 06:14:52;;;;;;;;;;;;;;;;;;5481632;26;20339;-62
2024/04/24 06:17:18;;;;;;;;;;;;;;;;;;5474222;26;19936;-62
2024/04/24 06:19:44;;;;;;;;;;;;;;;;;;5482195;26;19964;-62
2024/04/24 06:22:10;;;;;;;;;;;;;;;;;;5474534;26;19979;-62
2024/04/24 06:24:35;;;;;;;;;;;;;;;;;;5481789;26;19928;-62
2024/04/24 06:27:01;;;;;;;;;;;;;;;;;;5474062;26;19934;-62
2024/04/24 06:29:27;;;;;;;;;;;;;;;;;;5483348;26;19936;-63
2024/04/24 06:31:53;;;;;;;;;;;;;;;;;;5466280;26;19928;-62
2024/04/24 06:34:19;;;;;;;;;;;;;;;;;;5475140;26;19928;-62
2024/04/24 06:36:45;;;;;;;;;;;;;;;;;;5476392;26;20374;-62
2024/04/24 06:39:11;;;;;;;;;;;;;;;;;;5466927;26;20455;-62
2024/04/24 06:41:37;;;;;;;;;;;;;;;;;;5467842;26;19939;-62
2024/04/24 06:44:02;;;;;;;;;;;;;;;;;;5480708;26;19996;-60
2024/04/24 06:46:28;;;;;;;;;;;;;;;;;;5475175;26;19935;-62
2024/04/24 06:48:54;;;;;;;;;;;;;;;;;;5481156;26;19932;-62
2024/04/24 06:51:20;;;;;;;;;;;;;;;;;;5476117;26;19935;-62
2024/04/24 06:53:46;;;;;;;;;;;;;;;;;;5475467;26;19997;-62
2024/04/24 06:56:12;;;;;;;;;;;;;;;;;;5485260;26;19939;-62
2024/04/24 06:58:38;;;;;;;;;;;;;;;;;;5485488;26;19935;-62
2024/04/24 07:01:04;;;;;;;;;;;;;;;;;;5483410;26;19932;-62
2024/04/24 07:03:30;;;;;;;;;;;;;;;;;;5484097;26;19954;-61
2024/04/24 07:05:56;;;;;;;;;;;;;;;;;;5476441;26;19940;-61
2024/04/24 07:08:22;;;;;;;;;;;;;;;;;;5477886;26;20385;-62
2024/04/24 07:10:48;;;;;;;;;;;;;;;;;;5481433;26;20383;-62
2024/04/24 07:13:13;;;;;;;;;;;;;;;;;;5477136;26;19929;-62
2024/04/24 07:15:42;;;;;;;;;;;;;;;;;;5472202;26;19929;-62
2024/04/24 07:18:08;;;;;;;;;;;;;;;;;;5467980;26;19956;-61
2024/04/24 07:20:34;;;;;;;;;;;;;;;;;;5477363;26;20329;-62
2024/04/24 07:23:00;;;;;;;;;;;;;;;;;;5471413;26;19928;-62
2024/04/24 07:25:26;;;;;;;;;;;;;;;;;;5446100;26;19935;-62
2024/04/24 07:27:52;;;;;;;;;;;;;;;;;;5484565;26;19960;-58
2024/04/24 07:30:22;;;;;;;;;;;;;;;;;;5472068;26;19928;-62
2024/04/24 07:32:48;;;;;;;;;;;;;;;;;;5473643;26;19935;-62
2024/04/24 07:35:14;;;;;;;;;;;;;;;;;;5472524;26;19928;-62
2024/04/24 07:37:40;;;;;;;;;;;;;;;;;;5473507;26;19936;-60
2024/04/24 07:40:06;;;;;;;;;;;;;;;;;;5470992;26;19935;-62
2024/04/24 07:42:31;;;;;;;;;;;;;;;;;;5483189;26;19936;-60
2024/04/24 07:44:57;;;;;;;;;;;;;;;;;;5481162;26;20336;-61
2024/04/24 07:47:23;;;;;;;;;;;;;;;;;;5433116;26;19928;-62
2024/04/24 07:49:49;;;;;;;;;;;;;;;;;;5484690;26;19935;-63
2024/04/24 07:52:15;;;;;;;;;;;;;;;;;;5484210;26;19935;-63
2024/04/24 07:54:42;;;;;;;;;;;;;;;;;;5484708;26;19937;-63
2024/04/24 07:57:08;;;;;;;;;;;;;;;;;;5476433;26;19928;-62
2024/04/24 07:59:33;;;;;;;;;;;;;;;;;;5484628;26;19935;-63
2024/04/24 08:02:01;;;;;;;;;;;;;;;;;;5464684;26;20133;-63
2024/04/24 08:04:27;;;;;;;;;;;;;;;;;;5482501;26;19935;-62
2024/04/24 08:06:53;;;;;;;;;;;;;;;;;;5482918;26;19999;-62
2024/04/24 08:09:19;;;;;;;;;;;;;;;;;;5483202;26;19936;-62
2024/04/24 08:11:45;;;;;;;;;;;;;;;;;;5465741;26;19936;-62
2024/04/24 08:14:11;;;;;;;;;;;;;;;;;;5479926;26;20019;-63
2024/04/24 08:16:37;;;;;;;;;;;;;;;;;;5479011;26;19935;-60
2024/04/24 08:19:02;;;;;;;;;;;;;;;;;;5461735;26;19932;-59
2024/04/24 08:21:28;;;;;;;;;;;;;;;;;;5474244;26;19996;-61
2024/04/24 08:23:54;;;;;;;;;;;;;;;;;;5475866;26;20278;-59
2024/04/24 08:26:20;;;;;;;;;;;;;;;;;;5452460;26;19932;-60
2024/04/24 08:28:46;;;;;;;;;;;;;;;;;;5484243;26;20266;-62
2024/04/24 08:31:12;;;;;;;;;;;;;;;;;;5466189;26;19928;-63
2024/04/24 08:33:38;;;;;;;;;;;;;;;;;;5473953;26;19928;-62
2024/04/24 08:36:04;;;;;;;;;;;;;;;;;;5474302;26;20011;-62
2024/04/24 08:38:29;;;;;;;;;;;;;;;;;;5474399;26;19928;-62
2024/04/24 08:40:55;;;;;;;;;;;;;;;;;;5472284;26;19928;-61
2024/04/24 08:43:21;;;;;;;;;;;;;;;;;;5472189;26;19936;-62
2024/04/24 08:45:47;;;;;;;;;;;;;;;;;;5483463;26;19938;-63
2024/04/24 08:48:13;;;;;;;;;;;;;;;;;;5479351;26;19927;-63
2024/04/24 08:50:39;;;;;;;;;;;;;;;;;;5485352;26;19928;-61
2024/04/24 08:53:05;;;;;;;;;;;;;;;;;;5482784;26;19929;-62
2024/04/24 08:55:30;;;;;;;;;;;;;;;;;;5485961;26;19928;-63
2024/04/24 08:57:56;;;;;;;;;;;;;;;;;;5487555;26;19935;-62
2024/04/24 09:00:22;;;;;;;;;;;;;;;;;;5483328;26;19935;-63
2024/04/24 09:02:48;;;;;;;;;;;;;;;;;;5487526;26;19928;-62
2024/04/24 09:05:14;;;;;;;;;;;;;;;;;;5472790;26;19958;-60
2024/04/24 09:07:41;;;;;;;;;;;;;;;;;;5480174;26;19929;-63
2024/04/24 09:10:07;;;;;;;;;;;;;;;;;;5482764;26;19934;-62
2024/04/24 09:12:33;;;;;;;;;;;;;;;;;;5482080;26;19928;-62
2024/04/24 09:14:59;;;;;;;;;;;;;;;;;;5486061;26;19928;-62
2024/04/24 09:17:25;;;;;;;;;;;;;;;;;;5487802;26;19962;-61
2024/04/24 09:19:51;;;;;;;;;;;;;;;;;;5483885;26;20278;-62
2024/04/24 09:22:17;;;;;;;;;;;;;;;;;;5482189;26;19928;-62
2024/04/24 09:24:45;;;;;;;;;;;;;;;;;;5482302;26;19942;-63
2024/04/24 09:27:11;;;;;;;;;;;;;;;;;;5478723;26;19928;-61
2024/04/24 09:29:37;;;;;;;;;;;;;;;;;;5478602;26;19935;-61
2024/04/24 09:32:03;;;;;;;;;;;;;;;;;;5477504;26;20346;-61
2024/04/24 09:34:29;;;;;;;;;;;;;;;;;;5484783;26;19934;-61
2024/04/24 09:36:56;;;;;;;;;;;;;;;;;;5481383;26;19928;-63
2024/04/24 09:39:22;;;;;;;;;;;;;;;;;;5480731;26;19996;-61
2024/04/24 09:41:48;;;;;;;;;;;;;;;;;;5482370;26;19943;-61
2024/04/24 09:44:13;;;;;;;;;;;;;;;;;;5475256;26;19997;-63
2024/04/24 09:46:39;;;;;;;;;;;;;;;;;;5484112;26;20274;-63
2024/04/24 09:49:07;;;;;;;;;;;;;;;;;;5486044;26;19928;-63
2024/04/24 09:51:33;;;;;;;;;;;;;;;;;;5483121;26;19948;-63
2024/04/24 09:53:58;;;;;;;;;;;;;;;;;;5477620;26;20378;-62
2024/04/24 09:56:27;;;;;;;;;;;;;;;;;;5485540;26;19935;-63
2024/04/24 09:58:53;;;;;;;;;;;;;;;;;;5476401;26;19928;-62
2024/04/24 10:01:19;;;;;;;;;;;;;;;;;;5484426;26;19927;-61
2024/04/24 10:03:45;;;;;;;;;;;;;;;;;;5485356;26;19934;-62
2024/04/24 10:06:11;;;;;;;;;;;;;;;;;;5485094;26;20394;-62
2024/04/24 10:08:37;;;;;;;;;;;;;;;;;;5486198;26;19928;-61
2024/04/24 10:11:02;;;;;;;;;;;;;;;;;;5485544;26;19932;-62
2024/04/24 10:13:28;;;;;;;;;;;;;;;;;;5470419;26;19928;-63
2024/04/24 10:15:54;;;;;;;;;;;;;;;;;;5481406;26;19954;-62
2024/04/24 10:18:20;;;;;;;;;;;;;;;;;;5482305;26;19939;-60
2024/04/24 10:20:46;;;;;;;;;;;;;;;;;;5486757;26;19935;-62
2024/04/24 10:23:12;;;;;;;;;;;;;;;;;;5471229;26;19936;-62
2024/04/24 10:25:38;;;;;;;;;;;;;;;;;;5481498;26;20003;-62
2024/04/24 10:28:04;;;;;;;;;;;;;;;;;;5479020;26;19934;-62
2024/04/24 10:30:29;;;;;;;;;;;;;;;;;;5473247;26;20358;-62
2024/04/24 10:32:55;;;;;;;;;;;;;;;;;;5484690;26;19942;-61
2024/04/24 10:35:23;;;;;;;;;;;;;;;;;;5479470;26;19932;-62
2024/04/24 10:37:49;;;;;;;;;;;;;;;;;;5469951;26;19956;-62
2024/04/24 10:40:15;;;;;;;;;;;;;;;;;;5473660;26;19935;-61
2024/04/24 10:42:41;;;;;;;;;;;;;;;;;;5476246;26;19993;-62
2024/04/24 10:45:07;;;;;;;;;;;;;;;;;;5482245;26;20015;-62
2024/04/24 10:47:33;;;;;;;;;;;;;;;;;;5477216;26;19934;-61
2024/04/24 10:49:59;;;;;;;;;;;;;;;;;;5481069;26;19928;-62
2024/04/24 10:52:24;;;;;;;;;;;;;;;;;;5480299;26;20368;-62
2024/04/24 10:54:50;;;;;;;;;;;;;;;;;;5479158;26;19928;-62
2024/04/24 10:57:16;;;;;;;;;;;;;;;;;;5477758;26;19927;-63
2024/04/24 10:59:42;;;;;;;;;;;;;;;;;;5479409;26;19935;-63
2024/04/24 11:02:08;;;;;;;;;;;;;;;;;;5473712;26;19996;-64
2024/04/24 11:04:34;;;;;;;;;;;;;;;;;;5476145;26;19929;-64
2024/04/24 11:07:00;;;;;;;;;;;;;;;;;;5474736;26;19940;-65
2024/04/24 11:09:25;;;;;;;;;;;;;;;;;;5460157;26;19947;-65
2024/04/24 11:11:53;;;;;;;;;;;;;;;;;;5472284;26;19928;-63
2024/04/24 11:14:19;;;;;;;;;;;;;;;;;;5468655;26;19936;-65
2024/04/24 11:16:45;;;;;;;;;;;;;;;;;;5465585;26;19929;-64
2024/04/24 11:19:11;;;;;;;;;;;;;;;;;;5470336;26;19997;-65
2024/04/24 11:21:37;;;;;;;;;;;;;;;;;;5470188;26;19931;-64
2024/04/24 11:24:02;;;;;;;;;;;;;;;;;;5472828;26;19935;-63
2024/04/24 11:26:29;;;;;;;;;;;;;;;;;;5477496;26;19932;-65
2024/04/24 11:28:54;;;;;;;;;;;;;;;;;;5479067;26;20262;-65
2024/04/24 11:31:20;;;;;;;;;;;;;;;;;;5466163;26;19928;-63
2024/04/24 11:33:46;;;;;;;;;;;;;;;;;;5472268;26;19938;-63
2024/04/24 11:36:12;;;;;;;;;;;;;;;;;;5479472;26;19995;-65
2024/04/24 11:38:39;;;;;;;;;;;;;;;;;;5468014;26;19928;-63
2024/04/24 11:41:05;;;;;;;;;;;;;;;;;;5472360;26;19939;-65
2024/04/24 11:43:31;;;;;;;;;;;;;;;;;;5473958;26;19939;-64
2024/04/24 11:45:56;;;;;;;;;;;;;;;;;;5471171;26;19928;-63
2024/04/24 11:48:24;;;;;;;;;;;;;;;;;;5466225;26;20381;-64
2024/04/24 11:50:50;;;;;;;;;;;;;;;;;;5460852;26;19936;-63
2024/04/24 11:53:16;;;;;;;;;;;;;;;;;;5472196;26;19928;-64
2024/04/24 11:55:41;;;;;;;;;;;;;;;;;;5474113;26;19997;-63
2024/04/24 11:58:07;;;;;;;;;;;;;;;;;;5470953;26;19935;-63
2024/04/24 12:00:33;;;;;;;;;;;;;;;;;;5469952;26;19932;-64
2024/04/24 12:02:59;;;;;;;;;;;;;;;;;;5469588;26;19928;-64
2024/04/24 12:05:25;;;;;;;;;;;;;;;;;;5473175;26;19928;-64
2024/04/24 12:07:51;;;;;;;;;;;;;;;;;;5458213;26;19931;-64
2024/04/24 12:10:17;;;;;;;;;;;;;;;;;;5467798;26;20001;-64
2024/04/24 12:12:44;;;;;;;;;;;;;;;;;;5471696;26;19940;-64
2024/04/24 12:15:09;;;;;;;;;;;;;;;;;;5463457;26;20356;-64
2024/04/24 12:17:35;;;;;;;;;;;;;;;;;;5459699;26;19935;-64
2024/04/24 12:20:01;;;;;;;;;;;;;;;;;;5472347;26;19996;-64
2024/04/24 12:22:27;;;;;;;;;;;;;;;;;;5467093;26;19928;-64
2024/04/24 12:24:53;;;;;;;;;;;;;;;;;;5471409;26;19929;-64
2024/04/24 12:27:19;;;;;;;;;;;;;;;;;;5471327;26;19981;-64
2024/04/24 12:29:46;;;;;;;;;;;;;;;;;;5469141;26;20010;-64
2024/04/24 12:32:12;;;;;;;;;;;;;;;;;;5478682;26;19939;-64
2024/04/24 12:34:38;;;;;;;;;;;;;;;;;;5468602;26;19936;-64
2024/04/24 12:37:04;;;;;;;;;;;;;;;;;;5466327;26;19947;-64
2024/04/24 12:39:30;;;;;;;;;;;;;;;;;;5476335;26;19932;-64
2024/04/24 12:41:55;;;;;;;;;;;;;;;;;;5475691;26;19935;-64
2024/04/24 12:44:21;;;;;;;;;;;;;;;;;;5455983;26;19955;-65
2024/04/24 12:46:48;;;;;;;;;;;;;;;;;;5465257;26;20572;-65
2024/04/24 12:49:14;;;;;;;;;;;;;;;;;;5480979;26;20243;-66
2024/04/24 12:51:39;;;;;;;;;;;;;;;;;;5470303;26;19935;-65
2024/04/24 12:54:05;;;;;;;;;;;;;;;;;;5466082;26;19934;-65
2024/04/24 12:56:31;;;;;;;;;;;;;;;;;;5431813;26;19943;-63
2024/04/24 12:58:57;;;;;;;;;;;;;;;;;;5473462;26;19942;-64
2024/04/24 13:01:23;;;;;;;;;;;;;;;;;;5463636;26;20274;-64
2024/04/24 13:03:49;;;;;;;;;;;;;;;;;;5477680;26;19936;-64
2024/04/24 13:06:21;;;;;;;;;;;;;;;;;;5467914;26;19928;-65
2024/04/24 13:08:47;;;;;;;;;;;;;;;;;;5467762;26;19936;-64
2024/04/24 13:11:13;;;;;;;;;;;;;;;;;;5472415;26;19935;-63
2024/04/24 13:13:39;;;;;;;;;;;;;;;;;;5478925;26;20394;-60
2024/04/24 13:16:05;;;;;;;;;;;;;;;;;;5473693;26;19928;-58
2024/04/24 13:18:30;;;;;;;;;;;;;;;;;;5473206;26;20004;-59
2024/04/24 13:20:56;;;;;;;;;;;;;;;;;;5483195;26;19940;-59
2024/04/24 13:23:22;;;;;;;;;;;;;;;;;;5480231;26;19953;-60
2024/04/24 13:25:48;;;;;;;;;;;;;;;;;;5484228;26;20391;-59
2024/04/24 13:28:14;;;;;;;;;;;;;;;;;;5472424;26;19934;-60
2024/04/24 13:30:40;;;;;;;;;;;;;;;;;;5474994;26;19936;-59
2024/04/24 13:33:06;;;;;;;;;;;;;;;;;;5475278;26;20354;-59
2024/04/24 13:35:32;;;;;;;;;;;;;;;;;;5475803;26;19932;-60
2024/04/24 13:37:57;;;;;;;;;;;;;;;;;;5484842;26;19972;-57
2024/04/24 13:40:23;;;;;;;;;;;;;;;;;;5484361;26;20003;-59
2024/04/24 13:42:49;;;;;;;;;;;;;;;;;;5483445;26;20381;-59
2024/04/24 13:45:15;;;;;;;;;;;;;;;;;;5486223;26;19928;-57
2024/04/24 13:47:41;;;;;;;;;;;;;;;;;;5476229;26;19928;-59
2024/04/24 13:50:09;;;;;;;;;;;;;;;;;;5477222;26;19935;-59
2024/04/24 13:52:35;;;;;;;;;;;;;;;;;;5478876;26;20370;-58
2024/04/24 13:55:01;;;;;;;;;;;;;;;;;;5484593;26;19973;-59
2024/04/24 13:57:28;;;;;;;;;;;;;;;;;;5482097;26;20261;-57
2024/04/24 13:59:54;;;;;;;;;;;;;;;;;;5481151;26;19943;-59
2024/04/24 14:02:20;;;;;;;;;;;;;;;;;;5480631;26;20464;-59
2024/04/24 14:04:46;;;;;;;;;;;;;;;;;;5476477;26;19932;-59
2024/04/24 14:07:11;;;;;;;;;;;;;;;;;;5482019;26;20369;-60
2024/04/24 14:09:37;;;;;;;;;;;;;;;;;;5475418;26;19985;-58
2024/04/24 14:12:03;;;;;;;;;;;;;;;;;;5470484;26;19928;-57
2024/04/24 14:14:29;;;;;;;;;;;;;;;;;;5471723;26;20013;-58
2024/04/24 14:16:55;;;;;;;;;;;;;;;;;;5476528;26;22047;-59
2024/04/24 14:19:21;;;;;;;;;;;;;;;;;;5474536;26;19928;-57
2024/04/24 14:21:47;;;;;;;;;;;;;;;;;;5473190;26;19944;-57
2024/04/24 14:24:13;;;;;;;;;;;;;;;;;;5477116;26;19934;-58
2024/04/24 14:26:39;;;;;;;;;;;;;;;;;;5476955;26;19996;-59
2024/04/24 14:29:05;;;;;;;;;;;;;;;;;;5474198;26;19981;-57
2024/04/24 14:31:31;;;;;;;;;;;;;;;;;;5478572;26;19936;-55
2024/04/24 14:33:57;;;;;;;;;;;;;;;;;;5475418;26;19928;-57
2024/04/24 14:36:23;;;;;;;;;;;;;;;;;;5478870;26;19928;-56
2024/04/24 14:38:51;;;;;;;;;;;;;;;;;;5477806;26;20223;-59
2024/04/24 14:41:17;;;;;;;;;;;;;;;;;;5476787;26;19996;-58
2024/04/24 14:43:43;;;;;;;;;;;;;;;;;;5467035;26;21796;-59
2024/04/24 14:46:09;;;;;;;;;;;;;;;;;;5479559;26;19966;-57
2024/04/24 14:48:34;;;;;;;;;;;;;;;;;;5480642;26;19935;-59
2024/04/24 14:51:00;;;;;;;;;;;;;;;;;;5481720;26;19953;-57
2024/04/24 14:53:26;;;;;;;;;;;;;;;;;;5475682;26;19928;-58
2024/04/24 14:55:52;;;;;;;;;;;;;;;;;;5485099;26;19947;-59
2024/04/24 14:58:18;;;;;;;;;;;;;;;;;;5476101;26;20398;-57
2024/04/24 15:00:44;;;;;;;;;;;;;;;;;;5480685;26;22459;-59
2024/04/24 15:03:10;;;;;;;;;;;;;;;;;;5477607;26;19928;-59
2024/04/24 15:05:36;;;;;;;;;;;;;;;;;;5475392;26;19928;-59
2024/04/24 15:08:02;;;;;;;;;;;;;;;;;;5478883;26;20465;-56
2024/04/24 15:10:27;;;;;;;;;;;;;;;;;;5477591;26;19939;-59
2024/04/24 15:12:53;;;;;;;;;;;;;;;;;;5476971;26;19933;-59
2024/04/24 15:15:19;;;;;;;;;;;;;;;;;;5467963;26;19936;-58
2024/04/24 15:17:45;;;;;;;;;;;;;;;;;;5472619;26;20319;-59
2024/04/24 15:20:11;;;;;;;;;;;;;;;;;;5485547;26;19939;-59
2024/04/24 15:22:37;;;;;;;;;;;;;;;;;;5483200;26;19935;-58
2024/04/24 15:25:03;;;;;;;;;;;;;;;;;;5478952;26;19935;-59
2024/04/24 15:27:29;;;;;;;;;;;;;;;;;;5475297;26;19956;-60
2024/04/24 15:29:55;;;;;;;;;;;;;;;;;;5470461;26;19935;-58
2024/04/24 15:32:20;;;;;;;;;;;;;;;;;;5469123;26;20028;-59
2024/04/24 15:34:46;;;;;;;;;;;;;;;;;;5470409;26;19934;-59
2024/04/24 15:37:12;;;;;;;;;;;;;;;;;;5477269;26;19927;-59
2024/04/24 15:39:38;;;;;;;;;;;;;;;;;;5472141;26;19939;-59
2024/04/24 15:42:04;;;;;;;;;;;;;;;;;;5476608;26;19931;-58
2024/04/24 15:44:33;;;;;;;;;;;;;;;;;;5474856;26;19939;-60
2024/04/24 15:46:59;;;;;;;;;;;;;;;;;;5479428;26;19936;-60
2024/04/24 15:49:24;;;;;;;;;;;;;;;;;;5487382;26;19928;-57
2024/04/24 15:51:50;;;;;;;;;;;;;;;;;;5478702;26;20384;-58
2024/04/24 15:54:16;;;;;;;;;;;;;;;;;;5473242;26;19939;-59
2024/04/24 15:56:42;;;;;;;;;;;;;;;;;;5474067;26;19936;-57
2024/04/24 15:59:08;;;;;;;;;;;;;;;;;;5480405;26;20398;-58
2024/04/24 16:01:34;;;;;;;;;;;;;;;;;;5480023;26;19939;-58
2024/04/24 16:04:00;;;;;;;;;;;;;;;;;;5473486;26;19964;-58
2024/04/24 16:06:27;;;;;;;;;;;;;;;;;;5478608;26;19960;-57
2024/04/24 16:08:52;;;;;;;;;;;;;;;;;;5469977;26;19960;-59
2024/04/24 16:11:18;;;;;;;;;;;;;;;;;;5481139;26;19947;-63
2024/04/24 16:13:44;;;;;;;;;;;;;;;;;;5478630;26;19935;-64
2024/04/24 16:16:10;;;;;;;;;;;;;;;;;;5465830;26;19935;-63
2024/04/24 16:18:36;;;;;;;;;;;;;;;;;;5465803;26;19997;-62
2024/04/24 16:21:02;;;;;;;;;;;;;;;;;;5475893;26;19936;-64
2024/04/24 16:23:28;;;;;;;;;;;;;;;;;;5471803;26;19940;-64
2024/04/24 16:25:54;;;;;;;;;;;;;;;;;;5464755;26;20381;-64
2024/04/24 16:28:19;;;;;;;;;;;;;;;;;;5480937;26;19927;-64
2024/04/24 16:30:45;;;;;;;;;;;;;;;;;;5475219;26;19928;-64
2024/04/24 16:33:11;;;;;;;;;;;;;;;;;;5480752;26;20358;-64
2024/04/24 16:35:37;;;;;;;;;;;;;;;;;;5478961;26;19939;-63
2024/04/24 16:38:03;;;;;;;;;;;;;;;;;;5476377;26;19977;-64
2024/04/24 16:40:29;;;;;;;;;;;;;;;;;;5470136;26;20523;-66